sensor_id;sensor_type;location;lat;lon;timestamp;pressure;altitude;pressure_sealevel;temperature;humidity
70521;BME280;58442;52.716;23.560;2022-10-31T00:01:26;101786.51;;;8.85;80.77
70521;BME280;58442;52.716;23.560;2022-10-31T00:03:27;101784.30;;;8.87;80.72
70521;BME280;58442;52.716;23.560;2022-10-31T00:05:28;101791.80;;;8.90;80.68
70521;BME280;58442;52.716;23.560;2022-10-31T00:07:37;101787.70;;;8.92;80.66
70521;BME280;58442;52.716;23.560;2022-10-31T00:09:38;101797.91;;;8.95;80.67
70521;BME280;58442;52.716;23.560;2022-10-31T00:11:39;101791.05;;;8.98;80.67
70521;BME280;58442;52.716;23.560;2022-10-31T00:13:40;101795.07;;;9.00;80.62
70521;BME280;58442;52.716;23.560;2022-10-31T00:15:52;101801.46;;;9.04;80.59
70521;BME280;58442;52.716;23.560;2022-10-31T00:17:53;101806.28;;;9.08;80.52
70521;BME280;58442;52.716;23.560;2022-10-31T00:19:54;101803.25;;;9.09;80.42
70521;BME280;58442;52.716;23.560;2022-10-31T00:21:55;101804.85;;;9.10;80.40
70521;BME280;58442;52.716;23.560;2022-10-31T00:24:07;101809.47;;;9.10;80.39
70521;BME280;58442;52.716;23.560;2022-10-31T00:26:08;101816.81;;;9.09;80.42
70521;BME280;58442;52.716;23.560;2022-10-31T00:28:10;101815.70;;;9.10;80.47
70521;BME280;58442;52.716;23.560;2022-10-31T00:30:12;101820.80;;;9.12;80.50
70521;BME280;58442;52.716;23.560;2022-10-31T00:32:21;101816.68;;;9.14;80.51
70521;BME280;58442;52.716;23.560;2022-10-31T00:34:23;101813.66;;;9.16;80.48
70521;BME280;58442;52.716;23.560;2022-10-31T00:36:24;101821.16;;;9.19;80.48
70521;BME280;58442;52.716;23.560;2022-10-31T00:38:25;101821.66;;;9.21;80.49
70521;BME280;58442;52.716;23.560;2022-10-31T00:40:36;101811.30;;;9.23;80.47
70521;BME280;58442;52.716;23.560;2022-10-31T00:42:39;101811.78;;;9.25;80.47
70521;BME280;58442;52.716;23.560;2022-10-31T00:44:42;101814.20;;;9.26;80.49
70521;BME280;58442;52.716;23.560;2022-10-31T00:46:43;101810.06;;;9.29;80.46
70521;BME280;58442;52.716;23.560;2022-10-31T00:48:51;101807.02;;;9.30;80.44
70521;BME280;58442;52.716;23.560;2022-10-31T00:50:52;101817.55;;;9.32;80.44
70521;BME280;58442;52.716;23.560;2022-10-31T00:52:54;101811.84;;;9.34;80.44
70521;BME280;58442;52.716;23.560;2022-10-31T00:54:55;101812.33;;;9.36;80.42
70521;BME280;58442;52.716;23.560;2022-10-31T00:57:06;101812.80;;;9.38;80.41
70521;BME280;58442;52.716;23.560;2022-10-31T00:59:07;101811.69;;;9.39;80.39
70521;BME280;58442;52.716;23.560;2022-10-31T01:01:08;101809.48;;;9.41;80.30
70521;BME280;58442;52.716;23.560;2022-10-31T01:03:09;101809.96;;;9.43;80.26
70521;BME280;58442;52.716;23.560;2022-10-31T01:05:21;101810.76;;;9.43;80.28
70521;BME280;58442;52.716;23.560;2022-10-31T01:07:22;101809.64;;;9.44;80.28
70521;BME280;58442;52.716;23.560;2022-10-31T01:09:24;101811.74;;;9.47;80.21
70521;BME280;58442;52.716;23.560;2022-10-31T01:11:25;101817.17;;;9.47;80.12
70521;BME280;58442;52.716;23.560;2022-10-31T01:13:36;101817.17;;;9.47;80.17
70521;BME280;58442;52.716;23.560;2022-10-31T01:15:37;101819.57;;;9.49;80.24
70521;BME280;58442;52.716;23.560;2022-10-31T01:17:39;101819.57;;;9.49;80.23
70521;BME280;58442;52.716;23.560;2022-10-31T01:19:40;101819.57;;;9.49;80.23
70521;BME280;58442;52.716;23.560;2022-10-31T01:21:54;101817.65;;;9.49;80.33
70521;BME280;58442;52.716;23.560;2022-10-31T01:23:56;101824.68;;;9.50;80.35
70521;BME280;58442;52.716;23.560;2022-10-31T01:26:05;101823.23;;;9.53;80.32
70521;BME280;58442;52.716;23.560;2022-10-31T01:28:07;101822.95;;;9.54;80.23
70521;BME280;58442;52.716;23.560;2022-10-31T01:30:09;101829.17;;;9.55;80.22
70521;BME280;58442;52.716;23.560;2022-10-31T01:32:10;101828.05;;;9.56;80.28
70521;BME280;58442;52.716;23.560;2022-10-31T01:34:14;101831.57;;;9.56;80.23
70521;BME280;58442;52.716;23.560;2022-10-31T01:36:22;101826.94;;;9.57;80.21
70521;BME280;58442;52.716;23.560;2022-10-31T01:38:24;101823.42;;;9.56;80.17
70521;BME280;58442;52.716;23.560;2022-10-31T01:40:29;101828.67;;;9.53;80.22
70521;BME280;58442;52.716;23.560;2022-10-31T01:42:30;101821.97;;;9.50;80.34
70521;BME280;58442;52.716;23.560;2022-10-31T01:46:50;101828.67;;;9.53;80.27
70521;BME280;58442;52.716;23.560;2022-10-31T01:48:59;101824.34;;;9.52;80.22
70521;BME280;58442;52.716;23.560;2022-10-31T01:51:02;101828.19;;;9.51;80.22
70521;BME280;58442;52.716;23.560;2022-10-31T01:53:08;101821.16;;;9.50;80.23
70521;BME280;58442;52.716;23.560;2022-10-31T01:55:17;101832.34;;;9.48;80.12
70521;BME280;58442;52.716;23.560;2022-10-31T01:57:20;101822.89;;;9.46;79.99
70521;BME280;58442;52.716;23.560;2022-10-31T01:59:36;101831.20;;;9.41;80.01
70521;BME280;58442;52.716;23.560;2022-10-31T02:01:40;101821.41;;;9.40;79.98
70521;BME280;58442;52.716;23.560;2022-10-31T02:03:42;101822.86;;;9.37;79.89
70521;BME280;58442;52.716;23.560;2022-10-31T02:05:43;101829.72;;;9.35;79.84
70521;BME280;58442;52.716;23.560;2022-10-31T02:10:09;101829.05;;;9.29;79.69
70521;BME280;58442;52.716;23.560;2022-10-31T02:12:11;101821.84;;;9.24;79.61
70521;BME280;58442;52.716;23.560;2022-10-31T02:14:13;101824.98;;;9.18;79.51
70521;BME280;58442;52.716;23.560;2022-10-31T02:16:14;101824.31;;;9.12;79.57
70521;BME280;58442;52.716;23.560;2022-10-31T02:18:26;101827.97;;;9.08;79.59
70521;BME280;58442;52.716;23.560;2022-10-31T02:20:39;101823.47;;;9.03;79.77
70521;BME280;58442;52.716;23.560;2022-10-31T02:38:49;101840.13;;;8.65;79.54
70521;BME280;58442;52.716;23.560;2022-10-31T02:43:23;101845.77;;;8.55;79.42
70521;BME280;58442;52.716;23.560;2022-10-31T02:48:04;101847.91;;;8.44;79.61
70521;BME280;58442;52.716;23.560;2022-10-31T02:52:24;101844.83;;;8.37;79.83
70521;BME280;58442;52.716;23.560;2022-10-31T02:54:27;101845.10;;;8.36;79.89
70521;BME280;58442;52.716;23.560;2022-10-31T02:56:29;101844.59;;;8.34;80.03
70521;BME280;58442;52.716;23.560;2022-10-31T02:58:35;101841.88;;;8.34;80.07
70521;BME280;58442;52.716;23.560;2022-10-31T03:00:45;101842.99;;;8.33;80.01
70521;BME280;58442;52.716;23.560;2022-10-31T03:14:15;101861.48;;;8.17;79.92
70521;BME280;58442;52.716;23.560;2022-10-31T03:16:55;101866.90;;;8.17;79.85
70521;BME280;58442;52.716;23.560;2022-10-31T03:19:05;101859.19;;;8.10;79.74
70521;BME280;58442;52.716;23.560;2022-10-31T03:21:20;101860.89;;;8.06;79.79
70521;BME280;58442;52.716;23.560;2022-10-31T03:23:35;101859.28;;;8.05;79.77
70521;BME280;58442;52.716;23.560;2022-10-31T03:25:39;101866.92;;;8.03;79.67
70521;BME280;58442;52.716;23.560;2022-10-31T03:27:43;101870.21;;;8.00;79.65
70521;BME280;58442;52.716;23.560;2022-10-31T03:29:47;101876.73;;;7.99;79.71
70521;BME280;58442;52.716;23.560;2022-10-31T03:31:57;101878.14;;;7.97;79.80
70521;BME280;58442;52.716;23.560;2022-10-31T03:34:09;101874.91;;;7.94;79.90
70521;BME280;58442;52.716;23.560;2022-10-31T03:36:14;101877.13;;;7.92;79.88
70521;BME280;58442;52.716;23.560;2022-10-31T03:38:15;101870.43;;;7.90;79.95
70521;BME280;58442;52.716;23.560;2022-10-31T03:40:19;101866.09;;;7.89;79.93
70521;BME280;58442;52.716;23.560;2022-10-31T03:42:25;101876.42;;;7.87;79.93
70521;BME280;58442;52.716;23.560;2022-10-31T03:44:29;101881.34;;;7.85;79.92
70521;BME280;58442;52.716;23.560;2022-10-31T03:46:31;101882.15;;;7.85;79.88
70521;BME280;58442;52.716;23.560;2022-10-31T03:48:33;101885.16;;;7.84;79.93
70521;BME280;58442;52.716;23.560;2022-10-31T03:53:07;101888.16;;;7.82;79.80
70521;BME280;58442;52.716;23.560;2022-10-31T03:57:39;101880.64;;;7.79;79.64
70521;BME280;58442;52.716;23.560;2022-10-31T03:59:44;101883.65;;;7.78;79.58
70521;BME280;58442;52.716;23.560;2022-10-31T04:01:50;101892.34;;;7.75;79.54
70521;BME280;58442;52.716;23.560;2022-10-31T04:03:53;101889.75;;;7.70;79.51
70521;BME280;58442;52.716;23.560;2022-10-31T04:05:59;101888.13;;;7.68;79.55
70521;BME280;58442;52.716;23.560;2022-10-31T04:08:04;101890.95;;;7.63;79.46
70521;BME280;58442;52.716;23.560;2022-10-31T04:10:10;101894.54;;;7.59;79.52
70521;BME280;58442;52.716;23.560;2022-10-31T04:12:14;101891.34;;;7.57;79.55
70521;BME280;58442;52.716;23.560;2022-10-31T04:14:27;101888.42;;;7.53;79.52
70521;BME280;58442;52.716;23.560;2022-10-31T04:16:31;101895.54;;;7.49;79.50
70521;BME280;58442;52.716;23.560;2022-10-31T04:18:32;101888.61;;;7.43;79.56
70521;BME280;58442;52.716;23.560;2022-10-31T04:20:39;101890.30;;;7.39;79.61
70521;BME280;58442;52.716;23.560;2022-10-31T04:22:41;101894.41;;;7.36;79.60
70521;BME280;58442;52.716;23.560;2022-10-31T04:24:42;101898.48;;;7.34;79.57
70521;BME280;58442;52.716;23.560;2022-10-31T04:26:43;101895.09;;;7.28;79.57
70521;BME280;58442;52.716;23.560;2022-10-31T04:28:44;101901.08;;;7.25;79.61
70521;BME280;58442;52.716;23.560;2022-10-31T04:30:56;101904.38;;;7.22;79.68
70521;BME280;58442;52.716;23.560;2022-10-31T04:32:57;101903.59;;;7.22;79.72
70521;BME280;58442;52.716;23.560;2022-10-31T04:34:58;101911.69;;;7.22;79.60
70521;BME280;58442;52.716;23.560;2022-10-31T04:36:59;101906.06;;;7.18;79.48
70521;BME280;58442;52.716;23.560;2022-10-31T04:39:11;101900.95;;;7.17;79.52
70521;BME280;58442;52.716;23.560;2022-10-31T04:41:12;101903.66;;;7.17;79.50
70521;BME280;58442;52.716;23.560;2022-10-31T04:43:13;101905.85;;;7.15;79.44
70521;BME280;58442;52.716;23.560;2022-10-31T04:45:14;101904.23;;;7.13;79.37
70521;BME280;58442;52.716;23.560;2022-10-31T04:47:25;101906.43;;;7.11;79.34
70521;BME280;58442;52.716;23.560;2022-10-31T04:49:27;101908.63;;;7.09;79.26
70521;BME280;58442;52.716;23.560;2022-10-31T04:51:28;101911.64;;;7.08;79.24
70521;BME280;58442;52.716;23.560;2022-10-31T04:53:29;101909.20;;;7.06;79.25
70521;BME280;58442;52.716;23.560;2022-10-31T04:55:40;101918.41;;;7.05;79.23
70521;BME280;58442;52.716;23.560;2022-10-31T04:57:43;101916.81;;;7.04;79.22
70521;BME280;58442;52.716;23.560;2022-10-31T04:59:44;101919.83;;;7.03;79.24
70521;BME280;58442;52.716;23.560;2022-10-31T05:01:45;101922.83;;;7.01;79.27
70521;BME280;58442;52.716;23.560;2022-10-31T05:03:55;101928.23;;;7.01;79.24
70521;BME280;58442;52.716;23.560;2022-10-31T05:05:57;101930.13;;;7.01;79.22
70521;BME280;58442;52.716;23.560;2022-10-31T05:07:58;101932.04;;;7.00;79.24
70521;BME280;58442;52.716;23.560;2022-10-31T05:09:59;101926.63;;;7.00;79.24
70521;BME280;58442;52.716;23.560;2022-10-31T05:12:10;101931.20;;;7.00;79.25
70521;BME280;58442;52.716;23.560;2022-10-31T05:14:11;101932.04;;;7.00;79.23
70521;BME280;58442;52.716;23.560;2022-10-31T05:16:12;101937.44;;;7.00;79.24
70521;BME280;58442;52.716;23.560;2022-10-31T05:18:14;101941.74;;;7.01;79.24
70521;BME280;58442;52.716;23.560;2022-10-31T05:20:28;101943.65;;;7.01;79.28
70521;BME280;58442;52.716;23.560;2022-10-31T05:22:29;101944.45;;;7.01;79.31
70521;BME280;58442;52.716;23.560;2022-10-31T05:24:30;101946.05;;;7.02;79.36
70521;BME280;58442;52.716;23.560;2022-10-31T05:26:31;101947.66;;;7.03;79.37
70521;BME280;58442;52.716;23.560;2022-10-31T05:28:40;101947.66;;;7.03;79.46
70521;BME280;58442;52.716;23.560;2022-10-31T05:30:41;101950.66;;;7.02;79.65
70521;BME280;58442;52.716;23.560;2022-10-31T05:32:44;101940.64;;;7.02;79.79
70521;BME280;58442;52.716;23.560;2022-10-31T05:34:46;101954.66;;;7.04;79.88
70521;BME280;58442;52.716;23.560;2022-10-31T05:36:55;101956.27;;;7.05;79.98
70521;BME280;58442;52.716;23.560;2022-10-31T05:38:56;101958.40;;;7.08;80.10
70521;BME280;58442;52.716;23.560;2022-10-31T05:40:57;101953.19;;;7.12;80.09
70521;BME280;58442;52.716;23.560;2022-10-31T05:43:01;101955.82;;;7.17;79.98
70521;BME280;58442;52.716;23.560;2022-10-31T05:45:12;101957.13;;;7.20;79.85
70521;BME280;58442;52.716;23.560;2022-10-31T05:47:14;101954.95;;;7.22;79.76
70521;BME280;58442;52.716;23.560;2022-10-31T05:49:15;101958.16;;;7.24;79.68
70521;BME280;58442;52.716;23.560;2022-10-31T05:51:18;101969.46;;;7.26;79.59
70521;BME280;58442;52.716;23.560;2022-10-31T05:53:25;101964.06;;;7.26;79.60
70521;BME280;58442;52.716;23.560;2022-10-31T05:55:27;101981.89;;;7.27;79.66
70521;BME280;58442;52.716;23.560;2022-10-31T05:57:29;101978.12;;;7.28;79.76
70521;BME280;58442;52.716;23.560;2022-10-31T05:59:30;101981.62;;;7.28;79.81
70521;BME280;58442;52.716;23.560;2022-10-31T06:01:40;101982.92;;;7.31;79.80
70521;BME280;58442;52.716;23.560;2022-10-31T06:03:41;101986.12;;;7.33;79.72
70521;BME280;58442;52.716;23.560;2022-10-31T06:05:42;101981.52;;;7.33;79.67
70521;BME280;58442;52.716;23.560;2022-10-31T06:07:43;101990.43;;;7.34;79.73
70521;BME280;58442;52.716;23.560;2022-10-31T06:09:55;101986.66;;;7.35;79.80
70521;BME280;58442;52.716;23.560;2022-10-31T06:11:56;101995.27;;;7.37;79.76
70521;BME280;58442;52.716;23.560;2022-10-31T06:13:57;101994.47;;;7.36;79.76
70521;BME280;58442;52.716;23.560;2022-10-31T06:15:58;101999.57;;;7.38;79.77
70521;BME280;58442;52.716;23.560;2022-10-31T06:18:09;102005.48;;;7.40;79.73
70521;BME280;58442;52.716;23.560;2022-10-31T06:20:11;102000.60;;;7.42;79.67
70521;BME280;58442;52.716;23.560;2022-10-31T06:22:12;102006.02;;;7.42;79.58
70521;BME280;58442;52.716;23.560;2022-10-31T06:24:13;102006.02;;;7.42;79.61
70521;BME280;58442;52.716;23.560;2022-10-31T06:26:24;102009.53;;;7.43;79.72
70521;BME280;58442;52.716;23.560;2022-10-31T06:28:25;102011.13;;;7.44;79.71
70521;BME280;58442;52.716;23.560;2022-10-31T06:30:27;102014.02;;;7.47;79.61
70521;BME280;58442;52.716;23.560;2022-10-31T06:32:28;102012.66;;;7.50;79.61
70521;BME280;58442;52.716;23.560;2022-10-31T06:34:40;102018.56;;;7.52;79.52
70521;BME280;58442;52.716;23.560;2022-10-31T06:36:41;102022.07;;;7.52;79.53
70521;BME280;58442;52.716;23.560;2022-10-31T06:38:43;102021.77;;;7.54;79.61
70521;BME280;58442;52.716;23.560;2022-10-31T06:40:44;102018.80;;;7.55;79.61
70521;BME280;58442;52.716;23.560;2022-10-31T06:42:59;102024.40;;;7.59;79.65
70521;BME280;58442;52.716;23.560;2022-10-31T06:45:00;102022.20;;;7.61;79.70
70521;BME280;58442;52.716;23.560;2022-10-31T06:47:01;102025.43;;;7.63;79.71
70521;BME280;58442;52.716;23.560;2022-10-31T06:49:02;102019.41;;;7.66;79.69
70521;BME280;58442;52.716;23.560;2022-10-31T06:51:09;102021.24;;;7.71;79.81
70521;BME280;58442;52.716;23.560;2022-10-31T06:53:10;102017.93;;;7.74;79.57
70521;BME280;58442;52.716;23.560;2022-10-31T06:55:13;102024.14;;;7.74;79.50
70521;BME280;58442;52.716;23.560;2022-10-31T06:57:14;102025.48;;;7.77;79.65
70521;BME280;58442;52.716;23.560;2022-10-31T06:59:24;102031.69;;;7.77;79.57
70521;BME280;58442;52.716;23.560;2022-10-31T07:01:26;102034.09;;;7.79;79.59
70521;BME280;58442;52.716;23.560;2022-10-31T07:03:27;102037.59;;;7.79;79.63
70521;BME280;58442;52.716;23.560;2022-10-31T07:05:29;102031.31;;;7.84;79.57
70521;BME280;58442;52.716;23.560;2022-10-31T07:07:39;102035.62;;;7.85;79.65
70521;BME280;58442;52.716;23.560;2022-10-31T07:09:40;102039.63;;;7.87;79.74
70521;BME280;58442;52.716;23.560;2022-10-31T07:11:41;102043.35;;;7.91;79.70
70521;BME280;58442;52.716;23.560;2022-10-31T07:13:42;102037.86;;;7.97;79.57
70521;BME280;58442;52.716;23.560;2022-10-31T07:16:04;102039.97;;;8.00;79.48
70521;BME280;58442;52.716;23.560;2022-10-31T07:18:06;102038.28;;;8.04;79.43
70521;BME280;58442;52.716;23.560;2022-10-31T07:20:09;102036.37;;;8.04;79.40
70521;BME280;58442;52.716;23.560;2022-10-31T07:22:10;102028.73;;;8.06;79.45
70521;BME280;58442;52.716;23.560;2022-10-31T07:24:12;102033.55;;;8.09;79.36
70521;BME280;58442;52.716;23.560;2022-10-31T07:26:14;102027.55;;;8.12;79.29
70521;BME280;58442;52.716;23.560;2022-10-31T07:28:15;102041.01;;;8.17;79.23
70521;BME280;58442;52.716;23.560;2022-10-31T07:30:16;102037.70;;;8.20;79.18
70521;BME280;58442;52.716;23.560;2022-10-31T07:32:27;102034.41;;;8.23;79.16
70521;BME280;58442;52.716;23.560;2022-10-31T07:34:28;102034.90;;;8.26;79.08
70521;BME280;58442;52.716;23.560;2022-10-31T07:36:29;102029.98;;;8.28;79.04
70521;BME280;58442;52.716;23.560;2022-10-31T07:38:31;102034.28;;;8.29;79.07
70521;BME280;58442;52.716;23.560;2022-10-31T07:40:42;102038.60;;;8.30;79.19
70521;BME280;58442;52.716;23.560;2022-10-31T07:42:45;102031.58;;;8.29;79.36
70521;BME280;58442;52.716;23.560;2022-10-31T07:44:47;102037.20;;;8.32;79.46
70521;BME280;58442;52.716;23.560;2022-10-31T07:46:48;102033.61;;;8.37;79.45
70521;BME280;58442;52.716;23.560;2022-10-31T07:48:57;102031.61;;;8.42;79.38
70521;BME280;58442;52.716;23.560;2022-10-31T07:50:58;102034.23;;;8.47;79.41
70521;BME280;58442;52.716;23.560;2022-10-31T07:53:06;102036.33;;;8.50;79.35
70521;BME280;58442;52.716;23.560;2022-10-31T07:55:09;102035.74;;;8.54;79.27
70521;BME280;58442;52.716;23.560;2022-10-31T07:57:12;102032.41;;;8.57;79.25
70521;BME280;58442;52.716;23.560;2022-10-31T07:59:13;102036.14;;;8.61;79.19
70521;BME280;58442;52.716;23.560;2022-10-31T08:01:14;102041.47;;;8.66;79.16
70521;BME280;58442;52.716;23.560;2022-10-31T08:03:17;102038.45;;;8.67;79.10
70521;BME280;58442;52.716;23.560;2022-10-31T08:05:27;102037.34;;;8.68;79.31
70521;BME280;58442;52.716;23.560;2022-10-31T08:07:28;102034.01;;;8.71;79.41
70521;BME280;58442;52.716;23.560;2022-10-31T08:09:30;102037.73;;;8.75;79.39
70521;BME280;58442;52.716;23.560;2022-10-31T08:11:31;102037.15;;;8.79;79.39
70521;BME280;58442;52.716;23.560;2022-10-31T08:13:42;102036.70;;;8.85;79.43
70521;BME280;58442;52.716;23.560;2022-10-31T08:15:43;102027.67;;;8.90;79.42
70521;BME280;58442;52.716;23.560;2022-10-31T08:17:52;102029.17;;;8.96;79.42
70521;BME280;58442;52.716;23.560;2022-10-31T08:19:53;102033.08;;;9.03;79.50
70521;BME280;58442;52.716;23.560;2022-10-31T08:21:57;102032.34;;;9.12;79.51
70521;BME280;58442;52.716;23.560;2022-10-31T08:23:59;102031.92;;;9.18;79.47
70521;BME280;58442;52.716;23.560;2022-10-31T08:26:00;102035.33;;;9.24;79.32
70521;BME280;58442;52.716;23.560;2022-10-31T08:28:01;102038.52;;;9.26;79.20
70521;BME280;58442;52.716;23.560;2022-10-31T08:30:12;102042.25;;;9.30;79.14
70521;BME280;58442;52.716;23.560;2022-10-31T08:32:13;102045.97;;;9.34;79.08
70521;BME280;58442;52.716;23.560;2022-10-31T08:34:14;102044.54;;;9.37;79.03
70521;BME280;58442;52.716;23.560;2022-10-31T08:36:15;102050.16;;;9.40;79.00
70521;BME280;58442;52.716;23.560;2022-10-31T08:38:26;102041.40;;;9.43;79.00
70521;BME280;58442;52.716;23.560;2022-10-31T08:40:29;102048.11;;;9.46;78.99
70521;BME280;58442;52.716;23.560;2022-10-31T08:42:31;102047.00;;;9.47;79.09
70521;BME280;58442;52.716;23.560;2022-10-31T08:44:32;102049.12;;;9.50;79.09
70521;BME280;58442;52.716;23.560;2022-10-31T08:46:41;102047.41;;;9.54;79.04
70521;BME280;58442;52.716;23.560;2022-10-31T08:48:43;102051.09;;;9.58;79.02
70521;BME280;58442;52.716;23.560;2022-10-31T08:50:44;102055.92;;;9.61;78.97
70521;BME280;58442;52.716;23.560;2022-10-31T08:52:46;102053.70;;;9.63;78.91
70521;BME280;58442;52.716;23.560;2022-10-31T08:54:56;102065.52;;;9.67;78.90
70521;BME280;58442;52.716;23.560;2022-10-31T08:56:57;102063.01;;;9.71;78.94
70521;BME280;58442;52.716;23.560;2022-10-31T08:58:58;102059.37;;;9.75;78.91
70521;BME280;58442;52.716;23.560;2022-10-31T09:01:01;102058.74;;;9.78;78.81
70521;BME280;58442;52.716;23.560;2022-10-31T09:03:35;102061.94;;;9.80;78.72
70521;BME280;58442;52.716;23.560;2022-10-31T09:05:36;102060.54;;;9.83;78.62
70521;BME280;58442;52.716;23.560;2022-10-31T09:07:37;102058.43;;;9.80;78.64
70521;BME280;58442;52.716;23.560;2022-10-31T09:09:39;102065.29;;;9.77;79.06
70521;BME280;58442;52.716;23.560;2022-10-31T09:11:40;102065.17;;;9.82;79.22
70521;BME280;58442;52.716;23.560;2022-10-31T09:13:41;102069.38;;;9.89;79.25
70521;BME280;58442;52.716;23.560;2022-10-31T09:15:45;102066.21;;;9.95;79.26
70521;BME280;58442;52.716;23.560;2022-10-31T09:17:47;102067.38;;;10.03;79.13
70521;BME280;58442;52.716;23.560;2022-10-31T09:19:49;102071.57;;;10.09;78.92
70521;BME280;58442;52.716;23.560;2022-10-31T09:21:54;102073.34;;;10.13;78.91
70521;BME280;58442;52.716;23.560;2022-10-31T09:23:59;102075.61;;;10.20;78.84
70521;BME280;58442;52.716;23.560;2022-10-31T09:26:02;102071.04;;;10.29;78.75
70521;BME280;58442;52.716;23.560;2022-10-31T09:28:05;102076.86;;;10.36;78.80
70521;BME280;58442;52.716;23.560;2022-10-31T09:30:07;102081.02;;;10.43;78.92
70521;BME280;58442;52.716;23.560;2022-10-31T09:32:14;102080.28;;;10.51;78.96
70521;BME280;58442;52.716;23.560;2022-10-31T09:34:15;102081.42;;;10.58;78.86
70521;BME280;58442;52.716;23.560;2022-10-31T09:36:16;102082.88;;;10.64;78.66
70521;BME280;58442;52.716;23.560;2022-10-31T09:38:19;102092.65;;;10.65;78.63
70521;BME280;58442;52.716;23.560;2022-10-31T09:40:35;102083.37;;;10.66;78.54
70521;BME280;58442;52.716;23.560;2022-10-31T09:42:46;102094.72;;;10.68;78.39
70521;BME280;58442;52.716;23.560;2022-10-31T09:49:24;102089.95;;;10.74;78.22
70521;BME280;58442;52.716;23.560;2022-10-31T09:51:34;102094.74;;;10.77;78.16
70521;BME280;58442;52.716;23.560;2022-10-31T09:53:45;102096.19;;;10.75;78.17
70521;BME280;58442;52.716;23.560;2022-10-31T09:55:57;102103.22;;;10.76;78.13
70521;BME280;58442;52.716;23.560;2022-10-31T09:58:01;102087.71;;;10.76;78.08
70521;BME280;58442;52.716;23.560;2022-10-31T10:00:07;102097.97;;;10.79;77.96
70521;BME280;58442;52.716;23.560;2022-10-31T10:06:35;102094.63;;;10.91;78.17
70521;BME280;58442;52.716;23.560;2022-10-31T10:08:40;102100.91;;;11.00;78.08
70521;BME280;58442;52.716;23.560;2022-10-31T10:10:48;102102.66;;;11.05;78.12
70521;BME280;58442;52.716;23.560;2022-10-31T10:17:32;102097.59;;;11.12;77.80
70521;BME280;58442;52.716;23.560;2022-10-31T10:24:27;102104.29;;;11.06;77.71
70521;BME280;58442;52.716;23.560;2022-10-31T10:26:37;102092.90;;;11.04;77.77
70521;BME280;58442;52.716;23.560;2022-10-31T10:28:41;102099.79;;;11.01;77.69
70521;BME280;58442;52.716;23.560;2022-10-31T10:30:48;102107.15;;;11.01;77.65
70521;BME280;58442;52.716;23.560;2022-10-31T10:32:57;102100.44;;;10.98;77.54
70521;BME280;58442;52.716;23.560;2022-10-31T10:39:43;102092.09;;;10.94;77.60
70521;BME280;58442;52.716;23.560;2022-10-31T10:41:55;102098.34;;;10.95;77.69
70521;BME280;58442;52.716;23.560;2022-10-31T10:44:15;102099.60;;;10.98;77.70
70521;BME280;58442;52.716;23.560;2022-10-31T10:50:53;102104.77;;;11.08;77.44
70521;BME280;58442;52.716;23.560;2022-10-31T10:53:02;102105.09;;;11.06;77.50
70521;BME280;58442;52.716;23.560;2022-10-31T10:57:49;102098.68;;;11.11;77.57
70521;BME280;58442;52.716;23.560;2022-10-31T10:59:48;102092.14;;;11.12;77.51
70521;BME280;58442;52.716;23.560;2022-10-31T11:01:51;102095.82;;;11.16;77.48
70521;BME280;58442;52.716;23.560;2022-10-31T11:03:52;102094.55;;;11.22;77.38
70521;BME280;58442;52.716;23.560;2022-10-31T11:05:56;102093.60;;;11.27;77.28
70521;BME280;58442;52.716;23.560;2022-10-31T11:08:04;102089.91;;;11.31;77.18
70521;BME280;58442;52.716;23.560;2022-10-31T11:10:11;102094.22;;;11.32;77.15
70521;BME280;58442;52.716;23.560;2022-10-31T11:12:21;102086.56;;;11.34;77.15
70521;BME280;58442;52.716;23.560;2022-10-31T11:14:23;102088.30;;;11.39;77.08
70521;BME280;58442;52.716;23.560;2022-10-31T11:18:44;102087.03;;;11.45;76.94
70521;BME280;58442;52.716;23.560;2022-10-31T11:20:52;102088.33;;;11.47;76.81
70521;BME280;58442;52.716;23.560;2022-10-31T11:25:20;102083.02;;;11.51;76.82
70521;BME280;58442;52.716;23.560;2022-10-31T11:27:22;102083.21;;;11.55;76.57
70521;BME280;58442;52.716;23.560;2022-10-31T11:29:25;102084.16;;;11.59;76.46
70521;BME280;58442;52.716;23.560;2022-10-31T11:31:27;102079.67;;;11.63;76.34
70521;BME280;58442;52.716;23.560;2022-10-31T11:33:35;102071.97;;;11.65;76.21
70521;BME280;58442;52.716;23.560;2022-10-31T11:35:39;102076.80;;;11.68;76.21
70521;BME280;58442;52.716;23.560;2022-10-31T11:37:43;102074.07;;;11.68;76.23
70521;BME280;58442;52.716;23.560;2022-10-31T11:40:04;102078.39;;;11.69;76.28
70521;BME280;58442;52.716;23.560;2022-10-31T11:42:16;102079.34;;;11.73;76.23
70521;BME280;58442;52.716;23.560;2022-10-31T11:44:23;102083.02;;;11.77;76.09
70521;BME280;58442;52.716;23.560;2022-10-31T11:46:39;102073.92;;;11.82;75.75
70521;BME280;58442;52.716;23.560;2022-10-31T11:48:48;102070.72;;;11.88;75.86
70521;BME280;58442;52.716;23.560;2022-10-31T11:50:56;102064.61;;;11.91;75.74
70521;BME280;58442;52.716;23.560;2022-10-31T11:52:58;102063.98;;;11.94;75.64
70521;BME280;58442;52.716;23.560;2022-10-31T11:55:15;102067.98;;;11.97;75.50
70521;BME280;58442;52.716;23.560;2022-10-31T11:59:26;102065.55;;;12.04;75.29
70521;BME280;58442;52.716;23.560;2022-10-31T12:01:30;102073.05;;;12.07;75.18
70521;BME280;58442;52.716;23.560;2022-10-31T12:03:43;102065.05;;;12.11;75.05
70521;BME280;58442;52.716;23.560;2022-10-31T12:05:59;102069.04;;;12.13;74.89
70521;BME280;58442;52.716;23.560;2022-10-31T12:08:01;102066.02;;;12.15;74.80
70521;BME280;58442;52.716;23.560;2022-10-31T12:10:10;102063.42;;;12.18;74.75
70521;BME280;58442;52.716;23.560;2022-10-31T12:12:22;102058.13;;;12.22;74.63